Time;durP1;ratioP1;P1;durP2;ratioP2;P2;SDS_P1;SDS_P2;PMS_P1;PMS_P2;Temp;Humidity;BMP_temperature;BMP_pressure;BME280_temperature;BME280_humidity;BME280_pressure;Samples;Min_cycle;Max_cycle;Signal;HPM_P1;HPM_P2
2023/11/21 00:00:34;;;;;;;7.37;2.33;;;11.50;99.90;;;;;;5035998;28;20229;-68
2023/11/21 00:02:59;;;;;;;9.20;2.87;;;11.60;99.90;;;;;;5027560;28;21079;-68
2023/11/21 00:05:25;;;;;;;6.53;2.17;;;11.60;99.90;;;;;;5025118;28;20219;-68
2023/11/21 00:07:51;;;;;;;8.37;2.53;;;11.50;99.90;;;;;;5031046;28;20572;-67
2023/11/21 00:10:17;;;;;;;4.50;2.70;;;11.60;99.90;;;;;;5037250;28;20238;-67
2023/11/21 00:12:42;;;;;;;8.13;2.57;;;11.60;99.90;;;;;;5037029;28;20207;-67
2023/11/21 00:15:11;;;;;;;6.30;2.23;;;11.50;99.90;;;;;;5040193;28;21011;-68
2023/11/21 00:17:38;;;;;;;7.53;2.60;;;11.60;99.90;;;;;;5039650;28;20605;-68
2023/11/21 00:20:06;;;;;;;8.40;2.40;;;11.60;99.90;;;;;;5042537;28;21186;-67
2023/11/21 00:22:33;;;;;;;4.63;2.00;;;11.60;99.90;;;;;;5035762;28;20926;-68
2023/11/21 00:24:59;;;;;;;7.33;2.20;;;11.60;99.90;;;;;;5039086;28;20453;-68
2023/11/21 00:27:24;;;;;;;7.10;2.70;;;11.70;99.90;;;;;;5032852;28;21001;-67
2023/11/21 00:29:50;;;;;;;12.10;2.40;;;11.70;99.90;;;;;;5040323;28;20180;-67
2023/11/21 00:32:15;;;;;;;11.00;2.63;;;11.60;99.90;;;;;;5036605;28;20211;-67
2023/11/21 00:34:42;;;;;;;5.63;2.40;;;11.60;99.90;;;;;;5036735;28;20614;-67
2023/11/21 00:37:07;;;;;;;5.30;2.40;;;11.60;99.90;;;;;;5040889;28;20182;-67
2023/11/21 00:39:35;;;;;;;5.13;2.13;;;11.60;99.90;;;;;;5036827;28;21109;-67
2023/11/21 00:42:00;;;;;;;3.50;2.10;;;11.50;99.90;;;;;;5040980;28;20176;-67
2023/11/21 00:44:26;;;;;;;6.97;3.00;;;11.50;99.90;;;;;;5038849;28;20450;-67
2023/11/21 00:46:51;;;;;;;5.37;2.10;;;11.40;99.90;;;;;;5038033;28;20180;-68
2023/11/21 00:49:17;;;;;;;7.23;2.20;;;11.50;99.90;;;;;;5040089;28;20176;-68
2023/11/21 00:51:43;;;;;;;9.83;2.80;;;11.50;99.90;;;;;;5036627;28;20692;-67
2023/11/21 00:54:08;;;;;;;6.33;2.00;;;11.50;99.90;;;;;;5036897;28;20296;-67
2023/11/21 00:56:34;;;;;;;4.33;2.10;;;11.50;99.90;;;;;;5038433;28;20192;-67
2023/11/21 00:58:59;;;;;;;6.30;2.40;;;11.50;99.90;;;;;;5038434;28;20260;-67
2023/11/21 01:01:25;;;;;;;5.13;1.80;;;11.50;99.90;;;;;;5037213;28;20199;-67
2023/11/21 01:03:50;;;;;;;5.27;2.20;;;11.60;99.90;;;;;;5034090;28;20306;-68
2023/11/21 01:06:16;;;;;;;7.47;2.70;;;11.60;99.90;;;;;;5034716;28;20634;-68
2023/11/21 01:08:43;;;;;;;3.77;2.20;;;11.60;99.90;;;;;;5038646;28;20180;-68
2023/11/21 01:11:10;;;;;;;4.63;2.07;;;11.70;99.90;;;;;;5039703;28;20431;-68
2023/11/21 01:13:35;;;;;;;6.53;2.90;;;11.70;99.90;;;;;;5037540;28;20458;-68
2023/11/21 01:16:01;;;;;;;6.40;3.20;;;11.80;99.90;;;;;;5036953;28;20438;-69
2023/11/21 01:18:27;;;;;;;7.80;2.60;;;11.80;99.90;;;;;;5039013;28;20644;-67
2023/11/21 01:20:53;;;;;;;5.37;2.17;;;11.80;99.90;;;;;;5036680;28;20179;-67
2023/11/21 01:23:19;;;;;;;5.87;1.97;;;11.70;99.90;;;;;;5036196;28;20229;-67
2023/11/21 01:25:45;;;;;;;4.80;2.40;;;11.70;99.90;;;;;;5034761;28;20458;-67
2023/11/21 01:28:10;;;;;;;7.90;2.57;;;11.70;99.90;;;;;;5035414;28;21166;-67
2023/11/21 01:30:36;;;;;;;7.57;2.70;;;11.70;99.90;;;;;;5038708;28;20214;-67
2023/11/21 01:33:01;;;;;;;4.73;1.90;;;11.60;99.90;;;;;;5030262;28;20200;-68
2023/11/21 01:35:27;;;;;;;9.77;2.10;;;11.60;99.90;;;;;;5033162;28;20216;-68
2023/11/21 01:37:53;;;;;;;6.50;2.17;;;11.70;99.90;;;;;;5035491;28;20627;-67
2023/11/21 01:40:18;;;;;;;8.40;1.90;;;11.70;99.90;;;;;;5037820;28;20188;-68
2023/11/21 01:42:46;;;;;;;6.33;2.30;;;11.70;99.90;;;;;;5039631;28;20437;-68
2023/11/21 01:45:12;;;;;;;9.20;2.37;;;11.50;99.90;;;;;;5036212;28;20269;-67
2023/11/21 01:47:39;;;;;;;5.30;2.37;;;11.50;99.90;;;;;;5037336;28;20426;-67
2023/11/21 01:50:07;;;;;;;4.87;2.50;;;11.50;99.90;;;;;;5039347;28;20912;-68
2023/11/21 01:52:35;;;;;;;6.20;2.40;;;11.50;99.90;;;;;;5034330;28;20447;-67
2023/11/21 01:55:01;;;;;;;5.70;2.27;;;11.50;99.90;;;;;;5038149;28;20441;-68
2023/11/21 01:57:26;;;;;;;8.43;2.30;;;11.30;99.90;;;;;;5039960;28;20425;-67
2023/11/21 01:59:54;;;;;;;7.50;2.43;;;11.30;99.90;;;;;;5038481;28;20195;-67
2023/11/21 02:02:20;;;;;;;6.37;2.30;;;11.30;99.90;;;;;;5037116;28;20670;-70
2023/11/21 02:04:45;;;;;;;4.67;2.37;;;11.30;99.90;;;;;;5029469;28;20458;-67
2023/11/21 02:07:11;;;;;;;8.10;3.10;;;11.30;99.90;;;;;;5032405;28;20265;-67
2023/11/21 02:09:42;;;;;;;4.17;2.30;;;11.30;99.90;;;;;;5036420;28;20184;-67
2023/11/21 02:12:10;;;;;;;5.40;2.60;;;11.30;99.90;;;;;;5037489;28;20170;-67
2023/11/21 02:14:36;;;;;;;5.50;2.20;;;11.20;99.90;;;;;;5032536;28;20454;-68
2023/11/21 02:17:03;;;;;;;4.03;3.07;;;11.20;99.90;;;;;;5031873;28;20419;-67
2023/11/21 02:19:30;;;;;;;4.47;1.70;;;11.20;99.90;;;;;;5030028;28;20447;-67
2023/11/21 02:22:00;;;;;;;7.20;2.43;;;11.20;99.90;;;;;;5031002;28;21061;-67
2023/11/21 02:24:27;;;;;;;11.13;2.80;;;11.20;99.90;;;;;;5033873;28;20458;-67
2023/11/21 02:26:52;;;;;;;6.17;2.50;;;11.20;99.90;;;;;;5036927;28;20466;-67
2023/11/21 02:29:22;;;;;;;7.97;2.50;;;11.10;99.90;;;;;;5044502;28;20417;-67
2023/11/21 02:31:52;;;;;;;4.90;2.83;;;11.00;99.90;;;;;;5046325;28;20194;-67
2023/11/21 02:34:18;;;;;;;5.60;2.33;;;11.10;99.90;;;;;;5047476;28;20553;-67
2023/11/21 02:36:44;;;;;;;4.67;2.00;;;11.10;99.90;;;;;;5045492;28;20939;-67
2023/11/21 02:39:10;;;;;;;4.10;1.93;;;11.10;99.90;;;;;;5044238;28;20464;-69
2023/11/21 02:41:39;;;;;;;6.53;2.63;;;11.10;99.90;;;;;;5042432;28;20832;-68
2023/11/21 02:44:08;;;;;;;8.30;2.10;;;11.00;99.90;;;;;;5043363;28;20491;-67
2023/11/21 02:46:34;;;;;;;5.07;2.20;;;11.10;99.90;;;;;;5044603;28;20463;-68
2023/11/21 02:49:03;;;;;;;7.03;2.60;;;11.10;99.90;;;;;;5041089;28;20927;-67
2023/11/21 02:51:30;;;;;;;5.80;2.80;;;11.00;99.90;;;;;;5050556;28;20437;-67
2023/11/21 02:53:58;;;;;;;8.43;2.10;;;11.00;99.90;;;;;;5042940;28;20438;-68
2023/11/21 02:56:25;;;;;;;5.60;2.10;;;10.90;99.90;;;;;;5046996;28;20425;-67
2023/11/21 02:58:51;;;;;;;4.70;1.87;;;10.90;99.90;;;;;;5048099;28;20430;-67
2023/11/21 03:01:16;;;;;;;5.47;2.40;;;10.90;99.90;;;;;;5042435;28;20433;-67
2023/11/21 03:03:42;;;;;;;7.03;2.47;;;10.90;99.90;;;;;;5039142;28;20215;-68
2023/11/21 03:06:08;;;;;;;5.37;2.50;;;11.00;99.90;;;;;;5039950;28;20203;-68
2023/11/21 03:08:35;;;;;;;5.33;1.80;;;10.90;99.90;;;;;;5041394;28;20737;-68
2023/11/21 03:11:02;;;;;;;5.60;1.70;;;10.80;99.90;;;;;;5044498;28;20519;-67
2023/11/21 03:13:28;;;;;;;2.53;1.73;;;10.90;99.90;;;;;;5047136;28;20955;-67
2023/11/21 03:15:54;;;;;;;6.60;2.50;;;10.90;99.90;;;;;;5049824;28;20505;-67
2023/11/21 03:18:21;;;;;;;6.93;2.30;;;10.90;99.90;;;;;;5046392;28;20445;-67
2023/11/21 03:20:47;;;;;;;5.57;2.40;;;10.90;99.90;;;;;;5043056;28;20274;-67
2023/11/21 03:23:13;;;;;;;8.80;2.40;;;10.90;99.90;;;;;;5042068;28;20591;-67
2023/11/21 03:25:38;;;;;;;8.47;2.57;;;10.90;99.90;;;;;;5046687;28;20298;-67
2023/11/21 03:28:04;;;;;;;7.07;2.03;;;11.00;99.90;;;;;;5047061;28;20184;-67
2023/11/21 03:30:30;;;;;;;5.20;2.17;;;10.90;99.90;;;;;;5045877;28;20196;-68
2023/11/21 03:32:55;;;;;;;7.13;2.37;;;11.00;99.90;;;;;;5045024;28;20621;-68
2023/11/21 03:35:21;;;;;;;8.10;2.10;;;11.00;99.90;;;;;;5039558;28;20572;-67
2023/11/21 03:37:47;;;;;;;5.43;2.20;;;10.90;99.90;;;;;;5044868;28;20723;-67
2023/11/21 03:40:13;;;;;;;6.63;2.33;;;10.90;99.90;;;;;;5039816;28;20184;-67
2023/11/21 03:42:39;;;;;;;4.80;2.80;;;10.90;99.90;;;;;;5039612;28;20214;-67
2023/11/21 03:45:05;;;;;;;5.30;2.83;;;10.90;99.90;;;;;;5038736;28;20208;-67
2023/11/21 03:47:31;;;;;;;7.70;2.00;;;10.90;99.90;;;;;;5035453;28;20423;-67
2023/11/21 03:49:57;;;;;;;4.80;2.03;;;11.00;99.90;;;;;;5039339;28;20509;-67
2023/11/21 03:52:22;;;;;;;5.83;2.20;;;11.00;99.90;;;;;;5040093;28;20263;-67
2023/11/21 03:54:48;;;;;;;7.30;2.17;;;11.00;99.90;;;;;;5041857;28;20272;-68
2023/11/21 03:57:14;;;;;;;8.10;2.30;;;10.90;99.90;;;;;;5041749;28;20233;-68
2023/11/21 03:59:45;;;;;;;4.43;2.00;;;10.90;99.90;;;;;;5034815;28;20172;-67
2023/11/21 04:02:10;;;;;;;4.40;2.10;;;11.00;99.90;;;;;;5043314;28;20278;-67
2023/11/21 04:04:36;;;;;;;3.83;1.90;;;10.90;99.90;;;;;;5035238;28;20514;-66
2023/11/21 04:07:02;;;;;;;6.90;2.63;;;11.00;99.90;;;;;;5043884;28;20189;-68
2023/11/21 04:09:28;;;;;;;9.83;2.53;;;11.00;99.90;;;;;;5045042;28;20207;-68
2023/11/21 04:11:55;;;;;;;4.77;2.20;;;11.00;99.90;;;;;;5039901;28;20501;-67
2023/11/21 04:14:21;;;;;;;5.97;2.50;;;11.00;99.90;;;;;;5042034;28;20298;-67
2023/11/21 04:16:46;;;;;;;2.83;2.00;;;11.00;99.90;;;;;;5044878;28;20456;-67
2023/11/21 04:19:14;;;;;;;4.60;1.83;;;11.00;99.90;;;;;;5046260;28;20188;-67
2023/11/21 04:21:40;;;;;;;5.97;2.20;;;11.00;99.90;;;;;;5041642;28;20190;-67
2023/11/21 04:24:07;;;;;;;7.77;2.37;;;11.10;99.90;;;;;;5044100;28;21189;-67
2023/11/21 04:26:32;;;;;;;6.07;2.20;;;11.10;99.90;;;;;;5043885;28;20488;-67
2023/11/21 04:28:58;;;;;;;8.60;2.23;;;11.10;99.90;;;;;;5036786;28;20513;-67
2023/11/21 04:31:23;;;;;;;5.10;1.87;;;11.10;99.90;;;;;;5047663;28;20598;-67
2023/11/21 04:33:49;;;;;;;3.30;1.87;;;11.10;99.90;;;;;;5045022;28;20239;-67
2023/11/21 04:36:14;;;;;;;6.70;2.13;;;11.10;99.90;;;;;;5040389;28;20184;-67
2023/11/21 04:38:40;;;;;;;5.90;2.10;;;11.10;99.90;;;;;;5043427;28;20192;-68
2023/11/21 04:41:06;;;;;;;9.07;2.40;;;11.20;99.90;;;;;;5041763;28;20195;-68
2023/11/21 04:43:31;;;;;;;7.40;2.40;;;11.20;99.90;;;;;;5041571;28;20253;-68
2023/11/21 04:45:57;;;;;;;4.30;2.30;;;11.20;99.90;;;;;;5038718;28;20292;-67
2023/11/21 04:48:23;;;;;;;3.80;2.03;;;11.10;99.90;;;;;;5036391;28;20184;-68
2023/11/21 04:50:48;;;;;;;5.67;1.90;;;11.20;99.90;;;;;;5041741;28;20190;-67
2023/11/21 04:53:14;;;;;;;9.77;3.10;;;11.10;99.90;;;;;;5042927;28;20204;-68
2023/11/21 04:55:40;;;;;;;4.70;2.37;;;11.10;99.90;;;;;;5041436;28;20266;-67
2023/11/21 04:58:06;;;;;;;4.83;2.33;;;11.10;99.90;;;;;;5043674;28;20194;-68
2023/11/21 05:00:31;;;;;;;8.50;2.70;;;11.10;99.90;;;;;;5041345;28;20434;-67
2023/11/21 05:02:57;;;;;;;4.13;2.13;;;11.00;99.90;;;;;;5042885;28;20211;-67
2023/11/21 05:05:23;;;;;;;6.27;2.77;;;11.00;99.90;;;;;;5038096;28;20211;-68
2023/11/21 05:07:49;;;;;;;8.87;2.90;;;11.10;99.90;;;;;;5043861;28;20172;-68
2023/11/21 05:10:14;;;;;;;4.10;2.53;;;11.10;99.90;;;;;;5039756;28;20430;-69
2023/11/21 05:12:41;;;;;;;9.53;2.73;;;11.10;99.90;;;;;;5043557;28;20808;-69
2023/11/21 05:15:11;;;;;;;6.47;3.40;;;11.00;99.90;;;;;;5035252;28;20247;-68
2023/11/21 05:17:43;;;;;;;5.70;2.70;;;11.00;99.90;;;;;;5041850;28;20851;-68
2023/11/21 05:20:13;;;;;;;4.53;2.70;;;11.00;99.90;;;;;;5041226;28;20430;-68
2023/11/21 05:22:40;;;;;;;5.10;2.80;;;10.90;99.90;;;;;;5040131;28;20478;-69
2023/11/21 05:25:09;;;;;;;8.60;3.10;;;10.90;99.90;;;;;;5041223;28;20466;-67
2023/11/21 05:27:35;;;;;;;4.27;2.40;;;11.00;99.90;;;;;;5040970;28;20418;-67
2023/11/21 05:30:05;;;;;;;5.27;2.67;;;11.00;99.90;;;;;;5043921;28;20760;-67
2023/11/21 05:32:31;;;;;;;4.47;3.13;;;11.00;99.90;;;;;;5034944;28;20484;-68
2023/11/21 05:34:57;;;;;;;6.97;3.10;;;11.00;99.90;;;;;;5039729;28;20498;-68
2023/11/21 05:37:23;;;;;;;9.47;2.97;;;11.10;99.90;;;;;;5038244;28;21016;-68
2023/11/21 05:39:49;;;;;;;4.43;2.90;;;11.00;99.90;;;;;;5038261;28;20177;-68
2023/11/21 05:42:14;;;;;;;5.87;2.87;;;10.90;99.90;;;;;;5033540;28;20746;-68
2023/11/21 05:44:43;;;;;;;4.20;2.83;;;10.90;99.90;;;;;;5035467;28;20528;-68
2023/11/21 05:47:09;;;;;;;5.40;3.33;;;10.90;99.90;;;;;;5039188;28;20616;-67
2023/11/21 05:49:35;;;;;;;5.87;3.10;;;10.80;99.90;;;;;;5037799;28;20492;-67
2023/11/21 05:52:00;;;;;;;8.47;3.73;;;10.80;99.90;;;;;;5037481;28;20466;-68
2023/11/21 05:54:26;;;;;;;4.80;3.23;;;10.90;99.90;;;;;;5034952;28;20711;-68
2023/11/21 05:56:52;;;;;;;6.37;3.43;;;10.80;99.90;;;;;;5039782;28;20228;-67
2023/11/21 05:59:17;;;;;;;3.83;3.37;;;10.80;99.90;;;;;;5040259;28;20180;-67
2023/11/21 06:01:43;;;;;;;6.07;3.50;;;10.80;99.90;;;;;;5033357;28;20654;-67
2023/11/21 06:04:09;;;;;;;6.83;3.40;;;10.90;99.90;;;;;;5039354;28;20211;-67
2023/11/21 06:06:35;;;;;;;4.50;3.50;;;10.80;99.90;;;;;;5037473;28;20226;-67
2023/11/21 06:09:01;;;;;;;4.73;3.20;;;10.80;99.90;;;;;;5040782;28;20409;-67
2023/11/21 06:11:26;;;;;;;4.37;3.07;;;10.80;99.90;;;;;;5041147;28;20435;-68
2023/11/21 06:13:53;;;;;;;3.77;2.90;;;10.70;99.90;;;;;;5040547;28;21017;-67
2023/11/21 06:16:19;;;;;;;6.40;3.60;;;10.70;99.90;;;;;;5038904;28;20689;-68
2023/11/21 06:18:45;;;;;;;3.00;2.70;;;10.70;99.90;;;;;;5033630;28;20446;-68
2023/11/21 06:21:11;;;;;;;5.67;3.63;;;10.70;99.90;;;;;;5041087;28;20438;-68
2023/11/21 06:23:37;;;;;;;6.40;3.60;;;10.70;99.90;;;;;;5039418;28;20469;-68
2023/11/21 06:26:04;;;;;;;3.93;3.00;;;10.70;99.90;;;;;;5046618;28;20837;-68
2023/11/21 06:28:30;;;;;;;4.10;3.10;;;10.70;99.90;;;;;;5035449;28;20179;-68
2023/11/21 06:30:57;;;;;;;5.00;3.23;;;10.80;99.90;;;;;;5034955;28;20441;-68
2023/11/21 06:33:22;;;;;;;8.73;3.90;;;10.80;99.90;;;;;;5040336;28;20237;-68
2023/11/21 06:35:48;;;;;;;5.17;3.90;;;10.70;99.90;;;;;;5039926;28;20528;-68
2023/11/21 06:38:13;;;;;;;6.50;3.70;;;10.60;99.90;;;;;;5034596;28;20195;-68
2023/11/21 06:40:40;;;;;;;7.53;4.30;;;10.70;99.90;;;;;;5036092;28;20669;-68
2023/11/21 06:43:07;;;;;;;5.10;4.03;;;10.60;99.90;;;;;;5036730;28;20211;-68
2023/11/21 06:45:34;;;;;;;5.70;4.37;;;10.70;99.90;;;;;;5038863;28;20529;-68
2023/11/21 06:47:59;;;;;;;7.13;4.03;;;10.70;99.90;;;;;;5034682;28;20441;-68
2023/11/21 06:50:25;;;;;;;4.90;4.40;;;10.70;99.90;;;;;;5038765;28;21854;-68
2023/11/21 06:52:51;;;;;;;9.63;4.97;;;10.70;99.90;;;;;;5034942;28;20475;-68
2023/11/21 06:55:16;;;;;;;6.97;5.57;;;10.70;99.90;;;;;;5040861;28;20191;-68
2023/11/21 06:57:43;;;;;;;5.77;4.73;;;10.70;99.90;;;;;;5037444;28;20188;-68
2023/11/21 07:00:09;;;;;;;11.20;6.00;;;10.70;99.90;;;;;;5036190;28;20206;-68
2023/11/21 07:02:35;;;;;;;9.73;6.10;;;10.70;99.90;;;;;;5027848;28;21037;-68
2023/11/21 07:05:00;;;;;;;7.17;5.10;;;10.70;99.90;;;;;;5041796;28;20628;-68
2023/11/21 07:07:27;;;;;;;6.90;6.20;;;10.70;99.90;;;;;;5038675;28;20176;-68
2023/11/21 07:09:53;;;;;;;13.10;6.50;;;10.70;99.90;;;;;;5034870;28;20191;-68
2023/11/21 07:12:18;;;;;;;8.13;5.80;;;10.70;99.90;;;;;;5038338;28;20429;-68
2023/11/21 07:14:44;;;;;;;9.80;6.43;;;10.70;99.90;;;;;;5037073;28;20670;-68
2023/11/21 07:17:11;;;;;;;9.00;6.87;;;10.60;99.90;;;;;;5037940;28;20544;-68
2023/11/21 07:19:38;;;;;;;12.63;7.30;;;10.70;99.90;;;;;;5038072;28;20419;-68
2023/11/21 07:22:05;;;;;;;10.20;6.40;;;10.70;99.90;;;;;;5039751;28;20425;-67
2023/11/21 07:24:32;;;;;;;10.87;6.87;;;10.70;99.90;;;;;;5040637;28;20514;-68
2023/11/21 07:26:58;;;;;;;15.57;7.30;;;10.60;99.90;;;;;;5042826;28;20470;-68
2023/11/21 07:29:29;;;;;;;9.40;6.80;;;10.70;99.90;;;;;;5040699;28;20928;-68
2023/11/21 07:31:55;;;;;;;11.17;7.50;;;10.70;99.90;;;;;;5042901;28;20501;-68
2023/11/21 07:34:21;;;;;;;10.17;7.50;;;10.70;99.90;;;;;;5034938;28;20629;-69
2023/11/21 07:36:47;;;;;;;11.73;7.17;;;10.60;99.90;;;;;;5038785;28;20191;-68
2023/11/21 07:39:13;;;;;;;9.13;7.30;;;10.60;99.90;;;;;;5044903;28;20436;-68
2023/11/21 07:41:44;;;;;;;6.90;4.87;;;10.80;99.90;;;;;;5046026;28;20198;-68
2023/11/21 07:44:10;;;;;;;7.40;4.93;;;10.90;99.90;;;;;;5045132;28;20426;-68
2023/11/21 07:46:36;;;;;;;7.00;4.07;;;11.00;99.90;;;;;;5042410;28;20469;-68
2023/11/21 07:49:01;;;;;;;5.30;3.90;;;11.00;99.90;;;;;;5058629;28;20191;-68
2023/11/21 07:51:27;;;;;;;9.17;4.10;;;10.90;99.90;;;;;;5046509;28;20650;-68
2023/11/21 07:53:53;;;;;;;5.13;4.20;;;10.90;99.90;;;;;;5039716;28;20211;-68
2023/11/21 07:56:18;;;;;;;6.80;4.57;;;10.90;99.90;;;;;;5046366;28;20455;-68
2023/11/21 07:58:44;;;;;;;5.63;4.30;;;10.90;99.90;;;;;;5035888;28;20263;-68
2023/11/21 08:01:10;;;;;;;6.03;4.57;;;10.80;99.90;;;;;;5042055;28;20665;-68
2023/11/21 08:03:36;;;;;;;10.70;7.67;;;10.90;99.90;;;;;;5038841;28;20450;-69
2023/11/21 08:06:03;;;;;;;6.63;4.20;;;10.90;99.90;;;;;;5036884;28;20258;-69
2023/11/21 08:08:29;;;;;;;6.10;4.63;;;11.00;99.90;;;;;;5042435;28;20564;-67
2023/11/21 08:10:58;;;;;;;6.90;4.10;;;11.10;99.90;;;;;;5040922;28;20426;-66
2023/11/21 08:13:27;;;;;;;6.20;4.83;;;11.00;99.90;;;;;;5038542;28;21017;-67
2023/11/21 08:16:01;;;;;;;6.27;4.60;;;11.10;99.90;;;;;;5038380;28;20806;-67
2023/11/21 08:18:27;;;;;;;6.60;5.70;;;11.00;99.90;;;;;;5042823;28;20403;-68
2023/11/21 08:20:55;;;;;;;6.87;5.30;;;10.90;99.90;;;;;;5044735;28;20415;-67
2023/11/21 08:23:25;;;;;;;6.70;5.80;;;10.90;99.90;;;;;;5040979;28;20769;-69
2023/11/21 08:25:51;;;;;;;7.73;6.50;;;11.00;99.90;;;;;;5042594;28;20532;-68
2023/11/21 08:28:16;;;;;;;7.70;6.90;;;11.00;99.90;;;;;;5037387;28;20525;-68
2023/11/21 08:30:42;;;;;;;10.40;6.90;;;11.10;99.90;;;;;;5037629;28;20657;-67
2023/11/21 08:33:08;;;;;;;8.80;6.70;;;11.20;99.90;;;;;;5042323;28;20203;-68
2023/11/21 08:35:34;;;;;;;11.07;7.10;;;11.20;99.90;;;;;;5040623;28;20184;-68
2023/11/21 08:38:00;;;;;;;16.53;7.73;;;11.30;99.90;;;;;;5039783;28;20446;-69
2023/11/21 08:40:26;;;;;;;21.33;15.13;;;11.40;99.90;;;;;;5041858;28;20422;-68
2023/11/21 08:42:54;;;;;;;9.63;8.00;;;11.50;99.90;;;;;;5038393;28;20450;-69
2023/11/21 08:45:21;;;;;;;10.30;7.47;;;11.60;99.90;;;;;;5040225;28;20892;-68
2023/11/21 08:47:47;;;;;;;8.40;7.53;;;11.60;99.90;;;;;;5036655;28;20906;-68
2023/11/21 08:50:13;;;;;;;7.80;6.63;;;11.60;99.90;;;;;;5044454;28;20418;-71
2023/11/21 08:52:40;;;;;;;10.30;7.77;;;11.70;99.90;;;;;;5037445;28;20195;-69
2023/11/21 08:55:07;;;;;;;9.30;7.37;;;11.70;99.90;;;;;;5036474;28;20279;-69
2023/11/21 08:57:37;;;;;;;10.23;7.30;;;11.70;99.90;;;;;;5038247;28;20421;-68
2023/11/21 09:00:16;;;;;;;10.23;7.23;;;11.70;99.90;;;;;;5038487;28;20422;-67
2023/11/21 09:02:43;;;;;;;10.17;7.97;;;11.70;99.90;;;;;;5038038;28;20453;-68
2023/11/21 09:05:10;;;;;;;11.63;7.60;;;11.70;99.90;;;;;;5038987;28;20835;-68
2023/11/21 09:07:41;;;;;;;11.00;7.90;;;11.80;99.90;;;;;;5037471;28;20427;-68
2023/11/21 09:10:07;;;;;;;12.13;7.20;;;11.80;99.90;;;;;;5037108;28;20464;-68
2023/11/21 09:12:37;;;;;;;17.17;7.73;;;11.90;99.90;;;;;;5033780;28;21002;-68
2023/11/21 09:15:04;;;;;;;14.00;8.23;;;12.00;99.90;;;;;;5037171;28;20468;-67
2023/11/21 09:17:30;;;;;;;9.07;7.90;;;11.90;99.90;;;;;;5037641;28;20472;-67
2023/11/21 09:19:56;;;;;;;11.60;8.17;;;11.90;99.90;;;;;;5036928;28;20814;-68
2023/11/21 09:22:24;;;;;;;10.37;8.77;;;11.90;99.90;;;;;;5037239;28;20176;-69
2023/11/21 09:24:50;;;;;;;10.40;7.73;;;11.90;99.90;;;;;;5033463;28;20423;-68
2023/11/21 09:27:17;;;;;;;11.23;8.13;;;12.10;99.90;;;;;;5038655;28;20419;-68
2023/11/21 09:29:42;;;;;;;10.70;8.77;;;12.00;99.90;;;;;;5038442;28;20580;-68
2023/11/21 09:32:10;;;;;;;11.50;8.80;;;12.10;99.90;;;;;;5035986;28;20430;-67
2023/11/21 09:34:38;;;;;;;17.53;8.73;;;12.10;99.90;;;;;;5036547;28;20223;-67
2023/11/21 09:37:05;;;;;;;9.33;7.73;;;12.10;99.90;;;;;;5034898;28;20789;-68
2023/11/21 09:39:31;;;;;;;9.23;8.00;;;12.20;99.90;;;;;;5039211;28;20578;-67
2023/11/21 09:42:05;;;;;;;10.20;8.20;;;12.20;99.90;;;;;;5035413;28;20465;-67
2023/11/21 09:44:59;;;;;;;9.30;7.77;;;12.20;99.90;;;;;;5036468;28;20275;-67
2023/11/21 09:47:24;;;;;;;9.57;8.57;;;12.20;99.90;;;;;;5035007;28;20505;-67
2023/11/21 09:49:53;;;;;;;9.53;7.93;;;12.20;99.90;;;;;;5038230;28;20852;-67
2023/11/21 09:52:25;;;;;;;8.90;7.77;;;12.30;99.90;;;;;;5037032;28;20656;-67
2023/11/21 09:54:53;;;;;;;11.03;8.90;;;12.30;99.90;;;;;;5037137;28;20502;-67
2023/11/21 09:57:21;;;;;;;10.60;7.90;;;12.30;99.90;;;;;;5037081;28;20414;-67
2023/11/21 09:59:50;;;;;;;10.20;9.10;;;12.30;99.90;;;;;;5035270;28;20476;-67
2023/11/21 10:02:18;;;;;;;10.20;8.40;;;12.30;99.90;;;;;;5036697;28;20921;-68
2023/11/21 10:04:45;;;;;;;10.57;8.43;;;12.30;99.90;;;;;;5034596;28;20431;-67
2023/11/21 10:07:15;;;;;;;11.30;8.53;;;12.30;99.90;;;;;;5038124;28;20458;-67
2023/11/21 10:09:41;;;;;;;11.90;7.90;;;12.20;99.90;;;;;;5037762;28;20432;-67
2023/11/21 10:12:08;;;;;;;9.37;8.13;;;12.20;99.90;;;;;;5033337;28;20438;-68
2023/11/21 10:14:40;;;;;;;12.37;8.40;;;12.20;99.90;;;;;;5034373;28;20542;-68
2023/11/21 10:17:08;;;;;;;9.13;7.70;;;12.20;99.90;;;;;;5036862;28;20521;-67
2023/11/21 10:19:35;;;;;;;8.97;7.30;;;12.30;99.90;;;;;;5045232;28;20799;-67
2023/11/21 10:22:02;;;;;;;15.03;7.63;;;12.30;99.90;;;;;;5035636;28;20417;-68
2023/11/21 10:24:27;;;;;;;9.93;6.63;;;12.30;99.90;;;;;;5041125;28;20452;-68
2023/11/21 10:26:53;;;;;;;8.70;6.80;;;12.30;99.90;;;;;;5038401;28;21299;-68
2023/11/21 10:29:21;;;;;;;7.20;6.50;;;12.30;99.90;;;;;;5041541;28;20176;-67
2023/11/21 10:31:49;;;;;;;9.07;6.53;;;12.30;99.90;;;;;;5038744;28;20222;-68
2023/11/21 10:34:19;;;;;;;6.23;5.60;;;12.30;99.90;;;;;;5035503;28;20484;-68
2023/11/21 10:36:45;;;;;;;6.60;5.60;;;12.30;99.90;;;;;;5033555;28;20414;-67
2023/11/21 10:39:20;;;;;;;7.13;5.77;;;12.20;99.90;;;;;;5035104;28;20491;-67
2023/11/21 10:41:46;;;;;;;6.47;5.50;;;12.20;99.90;;;;;;5039586;28;20444;-67
2023/11/21 10:44:21;;;;;;;7.33;5.30;;;12.10;99.90;;;;;;5038113;28;20615;-67
2023/11/21 10:46:57;;;;;;;7.80;5.57;;;12.10;99.90;;;;;;5034590;28;20457;-68
2023/11/21 10:49:27;;;;;;;6.70;5.47;;;12.10;99.90;;;;;;5036930;28;20792;-68
2023/11/21 10:51:54;;;;;;;7.80;5.67;;;12.10;99.90;;;;;;5036471;28;20450;-68
2023/11/21 10:54:20;;;;;;;8.97;6.30;;;12.10;99.90;;;;;;5035937;28;20422;-69
2023/11/21 10:56:50;;;;;;;6.63;5.93;;;12.10;99.90;;;;;;5045629;28;20421;-69
2023/11/21 10:59:17;;;;;;;8.00;5.37;;;12.10;99.90;;;;;;5040507;28;20461;-69
2023/11/21 11:01:45;;;;;;;5.93;5.03;;;12.10;99.90;;;;;;5037230;28;20939;-69
2023/11/21 11:04:16;;;;;;;6.73;5.30;;;12.10;99.90;;;;;;5039992;28;20460;-69
2023/11/21 11:07:03;;;;;;;6.57;5.40;;;12.10;99.90;;;;;;5044486;28;20476;-69
2023/11/21 11:09:33;;;;;;;6.43;5.10;;;12.20;99.90;;;;;;5041989;28;20426;-68
2023/11/21 11:11:59;;;;;;;8.43;6.10;;;12.20;99.90;;;;;;5039679;28;20414;-68
2023/11/21 11:14:26;;;;;;;8.17;6.30;;;12.20;99.90;;;;;;5045131;28;20974;-68
2023/11/21 11:16:55;;;;;;;7.73;5.57;;;12.30;99.90;;;;;;5032317;28;20527;-69
2023/11/21 11:19:21;;;;;;;7.70;5.30;;;12.30;99.90;;;;;;5040348;28;20457;-69
2023/11/21 11:22:08;;;;;;;9.50;5.83;;;12.40;99.90;;;;;;5037834;28;20434;-69
2023/11/21 11:25:13;;;;;;;7.10;6.40;;;12.40;99.90;;;;;;5039683;28;20463;-69
2023/11/21 11:28:11;;;;;;;6.17;5.53;;;12.30;99.90;;;;;;5040542;28;20430;-69
2023/11/21 11:31:03;;;;;;;5.97;5.23;;;12.30;99.90;;;;;;5035886;28;20465;-69
2023/11/21 11:33:39;;;;;;;6.50;5.50;;;12.20;99.90;;;;;;5041043;28;20523;-69
2023/11/21 11:36:11;;;;;;;6.70;5.77;;;12.20;99.90;;;;;;5042580;28;20988;-69
2023/11/21 11:38:36;;;;;;;6.27;5.40;;;12.20;99.90;;;;;;5037352;28;20429;-69
2023/11/21 11:41:04;;;;;;;6.70;5.90;;;12.20;99.90;;;;;;5038334;28;20427;-69
2023/11/21 11:43:32;;;;;;;6.23;5.63;;;12.20;99.90;;;;;;5043104;28;20207;-69
2023/11/21 11:45:59;;;;;;;6.23;5.30;;;12.20;99.90;;;;;;5038591;28;20450;-68
2023/11/21 11:48:25;;;;;;;6.43;5.70;;;12.20;99.90;;;;;;5040359;28;20438;-68
2023/11/21 11:51:04;;;;;;;7.67;6.00;;;12.30;99.90;;;;;;5040717;28;20470;-68
2023/11/21 11:53:39;;;;;;;8.90;6.60;;;12.30;99.90;;;;;;5036636;28;20439;-69
2023/11/21 11:56:30;;;;;;;9.40;7.03;;;12.30;99.90;;;;;;5055942;28;20525;-69
2023/11/21 11:58:57;;;;;;;7.37;6.43;;;12.30;99.90;;;;;;5042867;28;20959;-70
2023/11/21 12:01:25;;;;;;;7.77;6.97;;;12.30;99.90;;;;;;5043970;28;20429;-69
2023/11/21 12:04:20;;;;;;;6.70;6.00;;;12.40;99.90;;;;;;5035423;28;20445;-70
2023/11/21 12:06:46;;;;;;;7.33;6.57;;;12.40;99.90;;;;;;5038596;28;20496;-69
2023/11/21 12:09:22;;;;;;;7.53;6.73;;;12.40;99.90;;;;;;5040121;28;20966;-68
2023/11/21 12:11:49;;;;;;;7.40;6.37;;;12.40;99.90;;;;;;5040405;28;20473;-68
2023/11/21 12:14:15;;;;;;;7.73;5.90;;;12.50;99.90;;;;;;5037397;28;20999;-68
2023/11/21 12:16:44;;;;;;;8.00;6.73;;;12.50;99.90;;;;;;5035974;28;20447;-68
2023/11/21 12:19:13;;;;;;;7.90;7.10;;;12.60;99.90;;;;;;5034444;28;20484;-68
2023/11/21 12:21:40;;;;;;;7.17;6.47;;;12.60;99.90;;;;;;5052825;28;20974;-69
2023/11/21 12:24:08;;;;;;;7.87;5.90;;;12.60;99.90;;;;;;5035368;28;20477;-69
2023/11/21 12:26:36;;;;;;;8.00;6.70;;;12.70;99.90;;;;;;5036603;28;20974;-66
2023/11/21 12:29:04;;;;;;;5.50;5.00;;;12.70;99.90;;;;;;5036182;28;20806;-69
2023/11/21 12:31:30;;;;;;;7.17;5.90;;;12.70;99.90;;;;;;5039278;28;20429;-69
2023/11/21 12:33:56;;;;;;;8.27;6.60;;;12.70;99.90;;;;;;5036440;28;20872;-68
2023/11/21 12:36:22;;;;;;;7.33;6.60;;;12.60;99.90;;;;;;5035059;28;20443;-69
2023/11/21 12:38:48;;;;;;;10.57;6.30;;;12.60;99.90;;;;;;5034259;28;20441;-68
2023/11/21 12:41:15;;;;;;;9.00;6.80;;;12.50;99.90;;;;;;5037448;28;20427;-69
2023/11/21 12:43:41;;;;;;;7.20;6.50;;;12.60;99.90;;;;;;5034717;28;20203;-68
2023/11/21 12:46:11;;;;;;;8.20;7.40;;;12.60;99.90;;;;;;5038358;28;21148;-68